Colcord, West Virginia
Current Conditions -  °F | °C
As of 9:51 PM on Saturday 25 Oct 2014 (Local Time) from KBKW Reporting Station
Clear Clear  
Wind Chill: 12°   Ceiling: Unl
Heat Index: 12°   Visibility: 10mi
Dew Point:   Wind: 6mph
Humidity: 77%   Direction: 250°WSW
Pressure: 29.94"   Gusts: NA
Location:  37.95°N, 81.44°W
Report Text: KBKW 260151Z AUTO 25005KT 10SM CLR 12/08 A2994 RMK AO2 SLP134 T01220083 TSNO
Loading
Personal Weather Stations






























Interactive Weather Map
Tropical Storm Tracking
New forecast layout! Learn more

10-Day Weather Forecast

Advertisements
Track Severe Weather on mobile